createdAt,value
2022-12-11T00:00:25.049Z,11.90
2022-12-11T00:02:52.310Z,9.80
2022-12-11T00:05:19.430Z,10.68
2022-12-11T00:07:46.642Z,11.55
2022-12-11T00:10:13.825Z,9.70
2022-12-11T00:12:40.876Z,8.50
2022-12-11T00:15:08.963Z,9.07
2022-12-11T00:17:36.498Z,8.70
2022-12-11T00:20:04.124Z,8.75
2022-12-11T00:22:31.437Z,8.10
2022-12-11T00:24:58.513Z,8.20
2022-12-11T00:27:25.625Z,8.60
2022-12-11T00:29:52.660Z,8.88
2022-12-11T00:32:19.784Z,8.43
2022-12-11T00:34:46.881Z,8.37
2022-12-11T00:37:14.109Z,7.97
2022-12-11T00:39:41.346Z,9.25
2022-12-11T00:42:08.760Z,9.27
2022-12-11T00:44:36.200Z,9.10
2022-12-11T00:47:03.878Z,9.37
2022-12-11T00:49:30.960Z,9.02
2022-12-11T00:51:58.034Z,8.35
2022-12-11T00:54:25.142Z,8.38
2022-12-11T00:56:52.209Z,9.48
2022-12-11T00:59:19.294Z,11.70
2022-12-11T01:01:46.575Z,10.70
2022-12-11T01:04:13.807Z,10.15
2022-12-11T01:06:41.230Z,10.02
2022-12-11T01:09:26.870Z,10.23
2022-12-11T01:11:54.164Z,9.30
2022-12-11T01:14:21.245Z,10.50
2022-12-11T01:16:48.310Z,10.05
2022-12-11T01:19:15.726Z,8.52
2022-12-11T01:21:42.971Z,8.40
2022-12-11T01:24:10.136Z,9.03
2022-12-11T01:26:37.358Z,9.02
2022-12-11T01:29:04.467Z,8.77
2022-12-11T01:31:31.702Z,8.48
2022-12-11T01:33:58.776Z,8.38
2022-12-11T01:36:26.203Z,8.30
2022-12-11T01:38:54.437Z,8.30
2022-12-11T01:41:22.033Z,9.15
2022-12-11T01:44:04.621Z,7.55
2022-12-11T01:46:36.565Z,7.75
2022-12-11T01:49:06.635Z,7.83
2022-12-11T01:51:37.368Z,8.15
2022-12-11T01:54:08.413Z,7.18
2022-12-11T01:56:36.526Z,9.20
2022-12-11T01:59:07.306Z,8.65
2022-12-11T02:01:37.718Z,8.17
2022-12-11T02:04:06.996Z,8.02
2022-12-11T02:06:43.374Z,8.70
2022-12-11T02:09:14.262Z,7.65
2022-12-11T02:11:53.477Z,7.82
2022-12-11T02:14:28.133Z,8.03
2022-12-11T02:17:14.840Z,8.05
2022-12-11T02:19:50.045Z,7.88
2022-12-11T02:22:35.885Z,8.15
2022-12-11T02:25:22.497Z,7.50
2022-12-11T02:28:11.347Z,8.00
2022-12-11T02:30:39.415Z,7.97
2022-12-11T02:33:07.510Z,8.48
2022-12-11T02:35:38.326Z,9.05
2022-12-11T02:38:14.215Z,8.40
2022-12-11T02:40:42.482Z,8.33
2022-12-11T02:43:11.721Z,7.80
2022-12-11T02:45:40.782Z,7.30
2022-12-11T02:48:09.978Z,8.55
2022-12-11T02:50:45.756Z,8.85
2022-12-11T02:53:13.829Z,7.07
2022-12-11T02:55:41.877Z,8.15
2022-12-11T02:58:18.774Z,9.55
2022-12-11T03:00:46.388Z,9.13
2022-12-11T03:03:14.211Z,8.27
2022-12-11T03:05:42.747Z,8.70
2022-12-11T03:08:10.292Z,9.50
2022-12-11T03:10:37.418Z,9.57
2022-12-11T03:13:04.715Z,10.05
2022-12-11T03:15:53.387Z,9.70
2022-12-11T03:18:30.637Z,10.33
2022-12-11T03:21:13.258Z,9.38
2022-12-11T03:23:46.287Z,9.88
2022-12-11T03:26:14.929Z,10.50
2022-12-11T03:28:55.017Z,8.88
2022-12-11T03:31:50.483Z,9.27
2022-12-11T03:34:25.939Z,9.52
2022-12-11T03:36:54.052Z,9.05
2022-12-11T03:39:33.217Z,10.27
2022-12-11T03:42:03.625Z,10.20
2022-12-11T03:44:32.458Z,8.83
2022-12-11T03:47:00.482Z,9.48
2022-12-11T03:49:29.904Z,10.40
2022-12-11T03:51:58.166Z,9.57
2022-12-11T03:54:26.103Z,9.13
2022-12-11T03:56:56.429Z,9.33
2022-12-11T03:59:23.676Z,9.07
2022-12-11T04:01:51.255Z,10.32
2022-12-11T04:04:18.415Z,9.63
2022-12-11T04:06:45.560Z,9.40
2022-12-11T04:09:12.865Z,8.93
2022-12-11T04:11:39.971Z,8.73
2022-12-11T04:14:30.301Z,9.93
2022-12-11T04:16:58.839Z,9.88
2022-12-11T04:19:44.779Z,8.95
2022-12-11T04:22:32.205Z,8.97
2022-12-11T04:25:00.101Z,8.75
2022-12-11T04:27:45.872Z,9.85
2022-12-11T04:30:24.660Z,9.23
2022-12-11T04:32:54.388Z,8.93
2022-12-11T04:35:22.166Z,8.43
2022-12-11T04:37:49.566Z,8.15
2022-12-11T04:40:19.010Z,9.55
2022-12-11T04:42:46.134Z,8.65
2022-12-11T04:45:13.507Z,8.43
2022-12-11T04:47:41.693Z,8.80
2022-12-11T04:50:10.948Z,9.13
2022-12-11T04:52:38.010Z,8.50
2022-12-11T04:55:06.401Z,8.93
2022-12-11T04:57:33.495Z,8.35
2022-12-11T05:00:00.620Z,7.77
2022-12-11T05:02:27.875Z,9.48
2022-12-11T05:04:55.019Z,8.32
2022-12-11T05:07:22.041Z,9.68
2022-12-11T05:09:49.087Z,8.52
2022-12-11T05:12:16.139Z,7.83
2022-12-11T05:14:43.512Z,6.55
2022-12-11T05:17:10.577Z,6.47
2022-12-11T05:19:37.661Z,6.32
2022-12-11T05:22:04.741Z,6.90
2022-12-11T05:24:31.847Z,6.50
2022-12-11T05:26:59.034Z,6.47
2022-12-11T05:29:26.118Z,7.25
2022-12-11T05:31:53.199Z,6.22
2022-12-11T05:34:20.261Z,7.20
2022-12-11T05:36:47.347Z,7.57
2022-12-11T05:39:14.587Z,5.78
2022-12-11T05:41:41.829Z,7.50
2022-12-11T05:44:12.634Z,7.78
2022-12-11T05:46:40.515Z,7.05
2022-12-11T05:49:08.036Z,5.70
2022-12-11T05:51:35.126Z,6.57
2022-12-11T05:54:02.773Z,6.38
2022-12-11T05:56:32.490Z,8.25
2022-12-11T05:59:00.775Z,9.80
2022-12-11T06:01:29.623Z,8.40
2022-12-11T06:03:57.317Z,8.43
2022-12-11T06:06:25.157Z,7.03
2022-12-11T06:08:53.822Z,6.95
2022-12-11T06:11:24.201Z,6.63
2022-12-11T06:13:52.413Z,4.73
2022-12-11T06:16:20.199Z,7.25
2022-12-11T06:18:47.902Z,6.55
2022-12-11T06:21:23.751Z,4.88
2022-12-11T06:23:53.424Z,6.03
2022-12-11T06:26:21.010Z,4.77
2022-12-11T06:28:48.727Z,5.43
2022-12-11T06:31:16.406Z,6.15
2022-12-11T06:33:43.558Z,5.55
2022-12-11T06:36:13.638Z,5.90
2022-12-11T06:38:40.743Z,6.03
2022-12-11T06:41:08.518Z,6.57
2022-12-11T06:43:36.802Z,5.50
2022-12-11T06:46:15.105Z,5.93
2022-12-11T06:48:42.883Z,6.80
2022-12-11T06:51:15.412Z,6.23
2022-12-11T06:53:42.631Z,6.20
2022-12-11T06:56:14.559Z,6.53
2022-12-11T06:58:42.671Z,6.22
2022-12-11T07:01:21.292Z,6.00
2022-12-11T07:03:48.989Z,5.30
2022-12-11T07:06:16.596Z,5.18
2022-12-11T07:08:43.680Z,4.32
2022-12-11T07:11:12.890Z,5.68
2022-12-11T07:13:41.945Z,5.88
2022-12-11T07:16:11.267Z,5.30
2022-12-11T07:18:42.734Z,5.90
2022-12-11T07:21:12.957Z,5.80
2022-12-11T07:23:40.643Z,5.80
2022-12-11T07:26:14.022Z,7.03
2022-12-11T07:28:41.320Z,6.33
2022-12-11T07:31:12.989Z,5.25
2022-12-11T07:33:40.807Z,5.93
2022-12-11T07:36:09.478Z,5.85
2022-12-11T07:38:36.930Z,6.15
2022-12-11T07:41:15.580Z,5.10
2022-12-11T07:43:43.274Z,6.22
2022-12-11T07:46:16.115Z,5.82
2022-12-11T07:48:45.355Z,6.25
2022-12-11T07:51:18.271Z,5.78
2022-12-11T07:53:47.188Z,6.10
2022-12-11T07:56:15.591Z,6.40
2022-12-11T07:58:42.786Z,6.70
2022-12-11T08:01:20.057Z,5.70
2022-12-11T08:03:47.689Z,6.05
2022-12-11T08:06:15.311Z,5.87
2022-12-11T08:08:42.510Z,5.68
2022-12-11T08:11:12.389Z,6.15
2022-12-11T08:13:39.965Z,5.78
2022-12-11T08:16:09.020Z,6.25
2022-12-11T08:18:37.079Z,6.70
2022-12-11T08:21:10.165Z,6.68
2022-12-11T08:23:37.385Z,7.13
2022-12-11T08:26:06.450Z,7.38
2022-12-11T08:28:33.608Z,5.82
2022-12-11T08:31:01.256Z,6.73
2022-12-11T08:33:28.362Z,6.38
2022-12-11T08:35:55.392Z,7.22
2022-12-11T08:38:25.626Z,6.90
2022-12-11T08:40:53.044Z,6.32
2022-12-11T08:43:20.230Z,7.80
2022-12-11T08:45:47.339Z,6.00
2022-12-11T08:48:14.503Z,6.35
2022-12-11T08:50:41.799Z,6.70
2022-12-11T08:53:08.847Z,5.93
2022-12-11T08:55:35.899Z,7.00
2022-12-11T08:58:03.257Z,5.68
2022-12-11T09:00:30.285Z,6.70
2022-12-11T09:02:57.353Z,6.22
2022-12-11T09:05:24.430Z,7.00
2022-12-11T09:07:51.541Z,5.43
2022-12-11T09:10:18.859Z,6.80
2022-12-11T09:12:45.940Z,6.00
2022-12-11T09:15:13.374Z,6.45
2022-12-11T09:17:40.670Z,6.30
2022-12-11T09:20:08.258Z,5.87
2022-12-11T09:22:35.333Z,6.68
2022-12-11T09:25:02.504Z,6.60
2022-12-11T09:27:29.565Z,7.32
2022-12-11T09:29:56.664Z,6.43
2022-12-11T09:32:23.737Z,5.80
2022-12-11T09:34:51.911Z,6.10
2022-12-11T09:37:19.031Z,6.05
2022-12-11T09:39:46.079Z,4.90
2022-12-11T09:42:32.836Z,5.65
2022-12-11T09:45:02.418Z,6.20
2022-12-11T09:47:41.295Z,5.80
2022-12-11T09:50:11.433Z,5.88
2022-12-11T09:56:00.905Z,6.85
2022-12-11T09:58:37.295Z,5.67
2022-12-11T10:01:29.758Z,5.70
2022-12-11T10:04:21.204Z,6.25
2022-12-11T10:06:57.234Z,5.82
2022-12-11T10:09:50.378Z,7.03
2022-12-11T10:12:38.324Z,5.97
2022-12-11T10:15:33.731Z,5.93
2022-12-11T10:18:04.872Z,6.22
2022-12-11T10:20:39.516Z,6.07
2022-12-11T10:23:08.850Z,5.93
2022-12-11T10:25:40.636Z,7.03
2022-12-11T10:28:14.235Z,6.72
2022-12-11T10:31:08.729Z,6.43
2022-12-11T10:33:54.976Z,6.88
2022-12-11T10:36:31.454Z,5.88
2022-12-11T10:38:59.219Z,6.83
2022-12-11T10:41:43.570Z,5.63
2022-12-11T10:44:18.182Z,6.53
2022-12-11T10:46:47.139Z,6.13
2022-12-11T10:49:25.140Z,6.88
2022-12-11T10:51:53.170Z,6.43
2022-12-11T10:54:29.234Z,6.85
2022-12-11T10:56:56.495Z,6.95
2022-12-11T10:59:37.317Z,6.32
2022-12-11T11:02:07.595Z,6.90
2022-12-11T11:04:39.153Z,6.87
2022-12-11T11:07:13.828Z,6.70
2022-12-11T11:09:41.408Z,6.57
2022-12-11T11:12:27.171Z,5.82
2022-12-11T11:15:06.052Z,6.65
2022-12-11T11:17:35.394Z,5.43
2022-12-11T11:20:07.456Z,7.00
2022-12-11T11:22:39.289Z,5.35
2022-12-11T11:25:06.723Z,4.85
2022-12-11T11:27:47.755Z,5.32
2022-12-11T11:30:25.096Z,6.10
2022-12-11T11:32:55.575Z,5.57
2022-12-11T11:35:27.387Z,6.00
2022-12-11T11:38:18.635Z,5.22
2022-12-11T11:40:51.364Z,6.38
2022-12-11T11:43:38.980Z,6.90
2022-12-11T11:46:07.914Z,6.35
2022-12-11T11:48:37.827Z,7.22
2022-12-11T11:51:14.696Z,6.03
2022-12-11T11:53:44.850Z,6.47
2022-12-11T11:56:23.824Z,6.67
2022-12-11T11:59:25.117Z,6.50
2022-12-11T12:01:55.127Z,5.65
2022-12-11T12:04:22.695Z,5.70
2022-12-11T12:07:04.952Z,6.40
2022-12-11T12:09:51.633Z,5.33
2022-12-11T12:12:45.024Z,7.47
2022-12-11T12:15:21.787Z,7.32
2022-12-11T12:17:55.849Z,6.32
2022-12-11T12:20:48.868Z,6.63
2022-12-11T12:23:36.625Z,6.23
2022-12-11T12:26:12.306Z,6.10
2022-12-11T12:28:49.110Z,6.78
2022-12-11T12:31:25.258Z,6.40
2022-12-11T12:34:24.354Z,6.60
2022-12-11T12:36:56.299Z,6.87
2022-12-11T12:39:47.861Z,6.93
2022-12-11T12:42:24.185Z,7.20
2022-12-11T12:45:13.003Z,7.10
2022-12-11T12:47:42.289Z,6.50
2022-12-11T12:50:13.750Z,9.07
2022-12-11T12:52:41.352Z,7.00
2022-12-11T12:55:29.025Z,8.02
2022-12-11T12:58:00.272Z,7.28
2022-12-11T13:00:39.182Z,6.50
2022-12-11T13:03:17.515Z,6.23
2022-12-11T13:05:54.648Z,6.30
2022-12-11T13:08:26.931Z,6.30
2022-12-11T13:11:05.527Z,7.18
2022-12-11T13:13:41.770Z,6.95
2022-12-11T13:16:36.383Z,6.43
2022-12-11T13:19:03.989Z,7.35
2022-12-11T13:21:33.831Z,7.68
2022-12-11T13:24:13.165Z,7.47
2022-12-11T13:26:40.382Z,6.93
2022-12-11T13:29:31.599Z,7.27
2022-12-11T13:32:01.971Z,6.57
2022-12-11T13:34:33.335Z,7.80
2022-12-11T13:39:48.319Z,6.35
2022-12-11T13:42:44.777Z,5.43
2022-12-11T13:45:28.478Z,6.38
2022-12-11T13:47:57.286Z,6.85
2022-12-11T13:50:28.543Z,6.30
2022-12-11T13:52:57.659Z,6.32
2022-12-11T13:55:27.496Z,5.60
2022-12-11T13:57:55.166Z,5.97
2022-12-11T14:00:28.456Z,5.93
2022-12-11T14:02:57.698Z,5.72
2022-12-11T14:05:24.960Z,6.47
2022-12-11T14:07:55.258Z,7.17
2022-12-11T14:10:30.756Z,6.30
2022-12-11T14:13:02.763Z,5.95
2022-12-11T14:15:30.667Z,5.85
2022-12-11T14:17:58.424Z,6.40
2022-12-11T14:20:27.968Z,6.33
2022-12-11T14:23:14.017Z,5.45
2022-12-11T14:25:41.122Z,5.60
2022-12-11T14:28:16.895Z,6.63
2022-12-11T14:30:50.323Z,6.65
2022-12-11T14:33:19.510Z,6.93
2022-12-11T14:35:47.465Z,6.60
2022-12-11T14:38:20.466Z,6.80
2022-12-11T14:40:52.009Z,7.03
2022-12-11T14:43:35.438Z,6.80
2022-12-11T14:46:06.752Z,7.13
2022-12-11T14:48:42.168Z,7.15
2022-12-11T14:51:14.985Z,7.35
2022-12-11T14:53:45.379Z,6.38
2022-12-11T14:56:21.840Z,6.95
2022-12-11T14:58:58.527Z,7.47
2022-12-11T15:01:31.631Z,7.55
2022-12-11T15:04:27.596Z,7.45
2022-12-11T15:06:55.792Z,6.60
2022-12-11T15:09:27.952Z,6.53
2022-12-11T15:11:58.455Z,7.10
2022-12-11T15:14:25.994Z,7.05
2022-12-11T15:16:56.435Z,6.78
2022-12-11T15:19:30.762Z,5.90
2022-12-11T15:22:05.712Z,6.40
2022-12-11T15:24:41.748Z,6.53
2022-12-11T15:27:26.275Z,5.75
2022-12-11T15:29:53.479Z,6.85
2022-12-11T15:32:21.762Z,6.38
2022-12-11T15:34:51.977Z,6.72
2022-12-11T15:37:30.015Z,6.27
2022-12-11T15:39:59.175Z,6.70
2022-12-11T15:42:30.783Z,7.28
2022-12-11T15:44:58.274Z,6.88
2022-12-11T15:47:27.451Z,7.68
2022-12-11T15:49:59.919Z,6.50
2022-12-11T15:52:26.994Z,5.78
2022-12-11T15:54:54.351Z,6.80
2022-12-11T15:57:22.932Z,7.00
2022-12-11T15:59:51.529Z,6.18
2022-12-11T16:02:18.672Z,6.73
2022-12-11T16:04:45.776Z,6.97
2022-12-11T16:07:16.700Z,6.75
2022-12-11T16:09:44.915Z,6.50
2022-12-11T16:12:13.697Z,6.50
2022-12-11T16:14:41.659Z,6.47
2022-12-11T16:17:09.859Z,7.03
2022-12-11T16:19:37.227Z,6.05
2022-12-11T16:22:05.478Z,7.15
2022-12-11T16:24:33.248Z,6.35
2022-12-11T16:27:00.373Z,6.90
2022-12-11T16:29:27.708Z,7.38
2022-12-11T16:31:55.251Z,6.40
2022-12-11T16:34:26.350Z,6.03
2022-12-11T16:36:53.680Z,6.28
2022-12-11T16:39:20.721Z,6.90
2022-12-11T16:41:47.820Z,7.20
2022-12-11T16:44:19.547Z,7.03
2022-12-11T16:46:46.895Z,6.72
2022-12-11T16:49:14.501Z,7.68
2022-12-11T16:51:41.934Z,8.13
2022-12-11T16:54:10.369Z,6.72
2022-12-11T16:56:37.994Z,7.03
2022-12-11T16:59:05.576Z,6.82
2022-12-11T17:01:33.122Z,6.18
2022-12-11T17:04:00.442Z,7.43
2022-12-11T17:06:27.609Z,8.98
2022-12-11T17:08:54.917Z,6.93
2022-12-11T17:11:23.253Z,6.00
2022-12-11T17:13:55.181Z,6.40
2022-12-11T17:16:24.797Z,6.20
2022-12-11T17:18:52.753Z,5.70
2022-12-11T17:21:20.876Z,5.68
2022-12-11T17:23:48.518Z,5.82
2022-12-11T17:26:16.466Z,6.20
2022-12-11T17:28:43.783Z,6.63
2022-12-11T17:31:16.164Z,5.68
2022-12-11T17:33:44.692Z,7.13
2022-12-11T17:36:14.639Z,7.70
2022-12-11T17:38:41.886Z,6.65
2022-12-11T17:41:12.157Z,6.50
2022-12-11T17:43:41.815Z,6.63
2022-12-11T17:46:11.628Z,7.20
2022-12-11T17:48:39.382Z,7.65
2022-12-11T17:51:09.472Z,7.93
2022-12-11T17:53:36.796Z,6.67
2022-12-11T17:56:05.927Z,6.65
2022-12-11T17:58:33.953Z,6.82
2022-12-11T18:01:01.293Z,7.30
2022-12-11T18:03:28.491Z,7.18
2022-12-11T18:05:56.809Z,7.53
2022-12-11T18:08:26.297Z,7.55
2022-12-11T18:10:54.374Z,7.47
2022-12-11T18:13:22.222Z,7.57
2022-12-11T18:16:14.078Z,7.93
2022-12-11T18:18:41.299Z,7.33
2022-12-11T18:21:12.600Z,8.13
2022-12-11T18:23:39.686Z,8.13
2022-12-11T18:26:06.774Z,8.45
2022-12-11T18:28:34.084Z,8.18
2022-12-11T18:31:03.069Z,8.20
2022-12-11T18:33:30.843Z,8.20
2022-12-11T18:35:57.940Z,7.88
2022-12-11T18:38:25.084Z,8.23
2022-12-11T18:40:52.157Z,7.57
2022-12-11T18:43:19.339Z,8.20
2022-12-11T18:45:46.638Z,8.38
2022-12-11T18:48:14.560Z,7.70
2022-12-11T18:50:45.391Z,7.43
2022-12-11T18:53:12.813Z,9.00
2022-12-11T18:55:44.407Z,7.77
2022-12-11T18:58:13.079Z,8.55
2022-12-11T19:00:41.481Z,8.85
2022-12-11T19:03:09.887Z,9.00
2022-12-11T19:05:37.781Z,9.85
2022-12-11T19:08:05.032Z,7.63
2022-12-11T19:10:32.082Z,7.65
2022-12-11T19:12:59.206Z,9.70
2022-12-11T19:15:27.515Z,12.13
2022-12-11T19:17:54.577Z,9.00
2022-12-11T19:23:08.833Z,8.85
2022-12-11T19:25:45.281Z,9.43
2022-12-11T19:28:12.379Z,7.63
2022-12-11T19:30:46.584Z,9.98
2022-12-11T19:33:13.785Z,8.33
2022-12-11T19:35:40.867Z,9.43
2022-12-11T19:38:08.428Z,10.20
2022-12-11T19:40:43.188Z,8.98
2022-12-11T19:43:10.806Z,9.75
2022-12-11T19:45:38.126Z,9.87
2022-12-11T19:48:05.970Z,9.65
2022-12-11T19:50:35.445Z,9.77
2022-12-11T19:53:02.768Z,9.52
2022-12-11T19:55:29.888Z,9.25
2022-12-11T19:57:56.915Z,9.83
2022-12-11T20:00:24.658Z,9.25
2022-12-11T20:02:52.069Z,9.18
2022-12-11T20:05:19.206Z,9.65
2022-12-11T20:07:46.379Z,9.68
2022-12-11T20:10:13.477Z,11.17
2022-12-11T20:12:40.684Z,10.85
2022-12-11T20:15:08.161Z,8.98
2022-12-11T20:17:36.666Z,9.15
2022-12-11T20:20:04.007Z,10.35
2022-12-11T20:22:31.081Z,11.63
2022-12-11T20:24:58.638Z,10.43
2022-12-11T20:27:26.250Z,10.68
2022-12-11T20:29:53.295Z,8.93
2022-12-11T20:32:20.515Z,10.05
2022-12-11T20:34:47.720Z,10.43
2022-12-11T20:37:14.759Z,9.52
2022-12-11T20:39:41.787Z,9.60
2022-12-11T20:42:09.738Z,9.77
2022-12-11T20:44:37.000Z,9.32
2022-12-11T20:47:04.183Z,9.70
2022-12-11T20:49:31.360Z,9.60
2022-12-11T20:51:59.724Z,9.43
2022-12-11T20:54:27.022Z,9.07
2022-12-11T20:56:54.188Z,10.57
2022-12-11T20:59:21.279Z,9.33
2022-12-11T21:01:49.312Z,9.68
2022-12-11T21:04:16.423Z,9.85
2022-12-11T21:06:43.807Z,8.48
2022-12-11T21:09:17.749Z,8.93
2022-12-11T21:11:44.938Z,8.90
2022-12-11T21:14:12.120Z,8.32
2022-12-11T21:16:39.371Z,8.57
2022-12-11T21:19:07.056Z,8.77
2022-12-11T21:21:36.793Z,9.68
2022-12-11T21:24:04.039Z,9.50
2022-12-11T21:26:31.102Z,8.63
2022-12-11T21:28:58.261Z,9.70
2022-12-11T21:31:25.682Z,10.00
2022-12-11T21:33:53.595Z,9.45
2022-12-11T21:36:20.721Z,8.53
2022-12-11T21:38:47.759Z,9.60
2022-12-11T21:41:17.813Z,9.05
2022-12-11T21:44:56.566Z,8.38
2022-12-11T21:46:33.374Z,8.23
2022-12-11T21:49:00.469Z,10.13
2022-12-11T21:51:35.928Z,9.43
2022-12-11T21:54:05.700Z,8.93
2022-12-11T21:56:33.238Z,10.48
2022-12-11T21:59:01.515Z,8.75
2022-12-11T22:01:33.496Z,8.83
2022-12-11T22:04:01.442Z,8.50
2022-12-11T22:06:28.586Z,9.77
2022-12-11T22:08:55.803Z,9.60
2022-12-11T22:11:28.392Z,9.80
2022-12-11T22:13:55.717Z,9.37
2022-12-11T22:16:23.016Z,10.10
2022-12-11T22:18:50.134Z,10.35
2022-12-11T22:21:17.862Z,10.77
2022-12-11T22:23:45.051Z,11.05
2022-12-11T22:26:17.660Z,9.50
2022-12-11T22:28:44.752Z,10.30
2022-12-11T22:31:14.274Z,10.38
2022-12-11T22:33:43.490Z,9.65
2022-12-11T22:36:11.343Z,10.70
2022-12-11T22:38:39.276Z,9.27
2022-12-11T22:41:18.974Z,10.18
2022-12-11T22:43:49.224Z,10.18
2022-12-11T22:46:18.225Z,9.15
2022-12-11T22:48:45.463Z,9.60
2022-12-11T22:51:12.848Z,8.57
2022-12-11T22:53:39.954Z,8.85
2022-12-11T22:56:09.015Z,9.38
2022-12-11T22:58:36.133Z,9.73
2022-12-11T23:01:07.589Z,8.60
2022-12-11T23:03:34.662Z,10.80
2022-12-11T23:06:05.529Z,8.70
2022-12-11T23:08:33.157Z,10.18
2022-12-11T23:11:00.338Z,10.60
2022-12-11T23:13:27.446Z,9.23
2022-12-11T23:15:54.513Z,9.80
2022-12-11T23:18:21.602Z,9.90
2022-12-11T23:20:49.300Z,11.10
2022-12-11T23:23:16.356Z,9.60
2022-12-11T23:25:43.638Z,9.95
2022-12-11T23:28:10.705Z,10.00
2022-12-11T23:30:38.007Z,8.98
2022-12-11T23:33:06.556Z,9.80
2022-12-11T23:35:33.821Z,9.80
2022-12-11T23:38:01.113Z,9.52
2022-12-11T23:40:28.288Z,7.87
2022-12-11T23:42:55.336Z,10.18
2022-12-11T23:45:22.386Z,8.77
2022-12-11T23:47:49.527Z,10.48
2022-12-11T23:50:16.584Z,8.60
2022-12-11T23:52:43.671Z,10.27
2022-12-11T23:55:11.268Z,9.15
2022-12-11T23:57:38.597Z,10.77
